Time;durP1;ratioP1;P1;durP2;ratioP2;P2;SDS_P1;SDS_P2;PMS_P1;PMS_P2;Temp;Humidity;BMP_temperature;BMP_pressure;BME280_temperature;BME280_humidity;BME280_pressure;Samples;Min_cycle;Max_cycle;Signal;HPM_P1;HPM_P2
2022/11/10 00:01:07;;;;;;;1.60;1.20;;;;;;;;;;5054032;28;20454;-92
2022/11/10 00:03:34;;;;;;;2.30;1.30;;;;;;;;;;5054286;28;20528;-90
2022/11/10 00:06:02;;;;;;;4.43;1.33;;;;;;;;;;5054201;28;20458;-89
2022/11/10 00:08:31;;;;;;;1.30;1.20;;;;;;;;;;5053980;28;20442;-88
2022/11/10 00:11:08;;;;;;;3.87;1.70;;;;;;;;;;5053764;28;20447;-89
2022/11/10 00:16:59;;;;;;;4.63;1.87;;;;;;;;;;5052942;28;20561;-90
2022/11/10 00:19:08;;;;;;;2.20;1.50;;;;;;;;;;5053688;28;20835;-92
2022/11/10 00:21:38;;;;;;;2.80;1.13;;;;;;;;;;5053939;28;20454;-90
2022/11/10 00:24:06;;;;;;;1.87;1.60;;;;;;;;;;5053542;28;20472;-90
2022/11/10 00:26:35;;;;;;;3.60;1.53;;;;;;;;;;5053351;28;20465;-89
2022/11/10 00:29:02;;;;;;;1.90;1.30;;;;;;;;;;5052808;28;20538;-89
2022/11/10 00:31:30;;;;;;;3.73;1.80;;;;;;;;;;5053882;28;20505;-86
2022/11/10 00:33:57;;;;;;;1.33;1.23;;;;;;;;;;5053992;28;20497;-93
2022/11/10 00:36:26;;;;;;;2.30;1.60;;;;;;;;;;5053643;28;20461;-88
2022/11/10 00:38:53;;;;;;;2.40;1.60;;;;;;;;;;5053563;28;20450;-91
2022/11/10 00:41:21;;;;;;;5.80;1.53;;;;;;;;;;5054228;28;20516;-89
2022/11/10 00:43:49;;;;;;;2.97;1.70;;;;;;;;;;5053121;28;20542;-92
2022/11/10 00:46:17;;;;;;;7.33;1.40;;;;;;;;;;5053851;28;20447;-91
2022/11/10 00:48:44;;;;;;;2.20;1.57;;;;;;;;;;5053666;28;20462;-90
2022/11/10 00:51:17;;;;;;;1.80;1.43;;;;;;;;;;5054530;28;20512;-94
2022/11/10 00:53:44;;;;;;;1.53;1.20;;;;;;;;;;5057992;28;20466;-90
2022/11/10 00:56:11;;;;;;;3.00;1.20;;;;;;;;;;5057511;28;20454;-90
2022/11/10 00:58:39;;;;;;;1.53;1.40;;;;;;;;;;5056623;28;21003;-91
2022/11/10 01:01:08;;;;;;;2.80;1.50;;;;;;;;;;5057820;28;20458;-90
2022/11/10 01:03:35;;;;;;;1.63;1.47;;;;;;;;;;5057387;28;21015;-91
2022/11/10 01:06:05;;;;;;;2.80;1.93;;;;;;;;;;5057247;28;20545;-90
2022/11/10 01:08:33;;;;;;;3.43;1.77;;;;;;;;;;5057546;28;20999;-93
2022/11/10 01:11:03;;;;;;;3.63;1.83;;;;;;;;;;5057212;28;20455;-92
2022/11/10 01:13:30;;;;;;;2.23;1.57;;;;;;;;;;5056080;28;20541;-91
2022/11/10 01:15:58;;;;;;;2.13;1.60;;;;;;;;;;5057163;28;20493;-89
2022/11/10 01:18:26;;;;;;;3.60;1.50;;;;;;;;;;5057285;28;20470;-89
2022/11/10 01:20:53;;;;;;;2.23;1.27;;;;;;;;;;5057506;28;20928;-91
2022/11/10 01:23:20;;;;;;;2.53;2.10;;;;;;;;;;5057170;28;20467;-93
2022/11/10 01:25:50;;;;;;;2.33;1.50;;;;;;;;;;5057693;28;20486;-90
2022/11/10 01:28:17;;;;;;;1.93;1.27;;;;;;;;;;5056722;28;20463;-89
2022/11/10 01:30:45;;;;;;;2.00;1.53;;;;;;;;;;5057336;28;20454;-89
2022/11/10 01:33:12;;;;;;;1.77;1.30;;;;;;;;;;5056784;28;20973;-92
2022/11/10 01:35:41;;;;;;;3.00;1.40;;;;;;;;;;5056775;28;20455;-88
2022/11/10 01:38:08;;;;;;;1.67;1.00;;;;;;;;;;5057052;28;20446;-87
2022/11/10 01:40:36;;;;;;;1.37;1.27;;;;;;;;;;5057153;28;20447;-89
2022/11/10 01:43:03;;;;;;;1.70;1.00;;;;;;;;;;5057213;28;20505;-88
2022/11/10 01:45:44;;;;;;;1.30;1.20;;;;;;;;;;5055539;28;20852;-90
2022/11/10 01:48:15;;;;;;;2.10;1.00;;;;;;;;;;5055953;28;20530;-90
2022/11/10 01:50:44;;;;;;;1.40;1.23;;;;;;;;;;5056591;28;20455;-91
2022/11/10 01:53:13;;;;;;;3.50;1.00;;;;;;;;;;5055811;28;20585;-93
2022/11/10 01:55:42;;;;;;;6.17;1.67;;;;;;;;;;5056104;28;20474;-87
2022/11/10 01:58:10;;;;;;;1.90;1.60;;;;;;;;;;5056154;28;20527;-91
2022/11/10 02:00:37;;;;;;;1.90;1.53;;;;;;;;;;5054933;28;20537;-88
2022/11/10 02:03:06;;;;;;;3.40;1.53;;;;;;;;;;5055112;28;20461;-87
2022/11/10 02:05:34;;;;;;;1.57;1.10;;;;;;;;;;5055613;28;20486;-87
2022/11/10 02:08:03;;;;;;;2.80;1.67;;;;;;;;;;5055458;28;20505;-93
2022/11/10 02:10:30;;;;;;;1.50;1.40;;;;;;;;;;5055916;28;20461;-88
2022/11/10 02:12:57;;;;;;;2.07;1.40;;;;;;;;;;5055330;28;20564;-87
2022/11/10 02:15:25;;;;;;;2.47;1.80;;;;;;;;;;5054678;28;20858;-88
2022/11/10 02:17:52;;;;;;;2.87;1.53;;;;;;;;;;5055600;28;20487;-91
2022/11/10 02:20:21;;;;;;;1.87;1.27;;;;;;;;;;5055437;28;20453;-87
2022/11/10 02:22:49;;;;;;;2.60;1.37;;;;;;;;;;5055578;28;20462;-93
2022/11/10 02:25:18;;;;;;;2.57;1.33;;;;;;;;;;5055422;28;20538;-89
2022/11/10 02:27:45;;;;;;;3.60;1.50;;;;;;;;;;5055309;28;20509;-91
2022/11/10 02:30:13;;;;;;;1.57;1.30;;;;;;;;;;5054778;28;20542;-93
2022/11/10 02:32:40;;;;;;;3.23;1.43;;;;;;;;;;5055917;28;20577;-90
2022/11/10 02:35:08;;;;;;;2.90;1.23;;;;;;;;;;5055305;28;20497;-91
2022/11/10 02:37:35;;;;;;;2.37;1.60;;;;;;;;;;5055385;28;21096;-87
2022/11/10 02:40:04;;;;;;;2.23;1.73;;;;;;;;;;5055595;28;20439;-92
2022/11/10 02:42:31;;;;;;;5.43;2.13;;;;;;;;;;5055385;28;20879;-92
2022/11/10 02:44:58;;;;;;;2.00;1.40;;;;;;;;;;5054226;28;20538;-93
2022/11/10 02:47:25;;;;;;;4.93;1.53;;;;;;;;;;5055424;28;20482;-89
2022/11/10 02:49:53;;;;;;;3.10;1.40;;;;;;;;;;5055278;28;20550;-89
2022/11/10 02:52:20;;;;;;;3.00;1.13;;;;;;;;;;5054902;28;20490;-91
2022/11/10 02:54:47;;;;;;;3.53;1.60;;;;;;;;;;5054981;28;20447;-86
2022/11/10 02:57:15;;;;;;;1.57;1.47;;;;;;;;;;5054725;28;20489;-88
2022/11/10 02:59:43;;;;;;;3.07;1.83;;;;;;;;;;5054176;28;20938;-94
2022/11/10 03:02:10;;;;;;;1.47;1.30;;;;;;;;;;5055183;28;20877;-92
2022/11/10 03:04:37;;;;;;;2.53;1.30;;;;;;;;;;5054912;28;20453;-92
2022/11/10 03:07:04;;;;;;;3.20;1.50;;;;;;;;;;5054884;28;20510;-90
2022/11/10 03:09:31;;;;;;;2.50;2.00;;;;;;;;;;5054765;28;20542;-86
2022/11/10 03:11:58;;;;;;;1.93;1.10;;;;;;;;;;5054660;28;20556;-91
2022/11/10 03:14:27;;;;;;;1.30;1.20;;;;;;;;;;5052922;28;20481;-88
2022/11/10 03:16:54;;;;;;;1.60;1.20;;;;;;;;;;5054535;28;20491;-88
2022/11/10 03:19:21;;;;;;;3.93;1.87;;;;;;;;;;5054635;28;20545;-93
2022/11/10 03:21:48;;;;;;;1.30;1.20;;;;;;;;;;5054547;28;20542;-88
2022/11/10 03:24:16;;;;;;;3.63;1.33;;;;;;;;;;5054981;28;20555;-88
2022/11/10 03:26:43;;;;;;;4.77;1.30;;;;;;;;;;5055015;28;21017;-86
2022/11/10 03:29:10;;;;;;;3.43;1.43;;;;;;;;;;5054206;28;20529;-92
2022/11/10 03:31:38;;;;;;;2.23;1.43;;;;;;;;;;5054781;28;20537;-92
2022/11/10 03:34:08;;;;;;;1.63;1.30;;;;;;;;;;5054700;28;20478;-91
2022/11/10 03:36:35;;;;;;;1.20;1.03;;;;;;;;;;5054869;28;20474;-92
2022/11/10 03:39:02;;;;;;;3.80;1.73;;;;;;;;;;5054837;28;20537;-88
2022/11/10 03:41:30;;;;;;;3.90;1.80;;;;;;;;;;5054174;28;20520;-86
2022/11/10 03:43:57;;;;;;;4.63;0.87;;;;;;;;;;5053258;28;20443;-89
2022/11/10 03:46:24;;;;;;;1.30;1.20;;;;;;;;;;5054711;28;20521;-92
2022/11/10 03:48:53;;;;;;;1.10;1.00;;;;;;;;;;5054634;28;20459;-93
2022/11/10 03:51:21;;;;;;;2.43;1.40;;;;;;;;;;5054122;28;20443;-89
2022/11/10 03:53:48;;;;;;;2.30;1.07;;;;;;;;;;5054061;28;20985;-91
2022/11/10 03:56:15;;;;;;;3.27;1.27;;;;;;;;;;5053973;28;20451;-91
2022/11/10 03:58:43;;;;;;;3.70;1.37;;;;;;;;;;5052782;28;20481;-92
2022/11/10 04:01:10;;;;;;;1.67;1.57;;;;;;;;;;5054166;28;20461;-93
2022/11/10 04:03:37;;;;;;;1.80;1.40;;;;;;;;;;5054475;28;20451;-89
2022/11/10 04:08:59;;;;;;;7.50;1.50;;;;;;;;;;5013880;28;20505;-91
2022/11/10 04:17:08;;;;;;;1.57;1.40;;;;;;;;;;5044007;28;20493;-86
2022/11/10 04:19:35;;;;;;;2.10;1.40;;;;;;;;;;5053363;28;20473;-91
2022/11/10 04:22:05;;;;;;;4.73;1.60;;;;;;;;;;5053660;28;20881;-87
2022/11/10 04:27:48;;;;;;;1.40;1.20;;;;;;;;;;5232481;22;20492;-89
2022/11/10 04:30:15;;;;;;;1.63;1.30;;;;;;;;;;5054817;28;20454;-93
2022/11/10 04:32:42;;;;;;;2.27;1.40;;;;;;;;;;5055469;28;20493;-91
2022/11/10 04:35:10;;;;;;;3.97;2.27;;;;;;;;;;5054606;28;20454;-94
2022/11/10 04:37:38;;;;;;;1.83;1.37;;;;;;;;;;5054631;28;20884;-87
2022/11/10 04:40:06;;;;;;;2.70;1.97;;;;;;;;;;5053477;28;20929;-88
2022/11/10 04:42:33;;;;;;;1.53;1.37;;;;;;;;;;5054063;28;20546;-92
2022/11/10 04:45:01;;;;;;;3.30;2.03;;;;;;;;;;5052743;28;20879;-89
2022/11/10 04:47:28;;;;;;;3.97;1.90;;;;;;;;;;5053338;28;20508;-87
2022/11/10 04:49:57;;;;;;;1.93;1.20;;;;;;;;;;5053486;28;20508;-88
2022/11/10 04:52:24;;;;;;;2.40;1.37;;;;;;;;;;5053283;28;20457;-93
2022/11/10 04:54:55;;;;;;;2.10;1.30;;;;;;;;;;5053799;28;20519;-88
2022/11/10 04:57:22;;;;;;;3.20;1.60;;;;;;;;;;5053334;28;20447;-88
2022/11/10 04:59:50;;;;;;;3.20;1.80;;;;;;;;;;5052560;28;20481;-89
2022/11/10 05:02:17;;;;;;;3.23;1.70;;;;;;;;;;5053261;28;20520;-89
2022/11/10 05:04:44;;;;;;;2.80;1.50;;;;;;;;;;5053178;28;20443;-88
2022/11/10 05:07:14;;;;;;;3.37;1.67;;;;;;;;;;5053157;28;20447;-88
2022/11/10 05:09:42;;;;;;;2.23;1.23;;;;;;;;;;5053733;28;20459;-89
2022/11/10 05:12:10;;;;;;;4.20;1.40;;;;;;;;;;5053856;28;20504;-91
2022/11/10 05:14:38;;;;;;;2.00;1.40;;;;;;;;;;5052271;28;20497;-93
2022/11/10 05:17:05;;;;;;;2.00;1.60;;;;;;;;;;5053059;28;20532;-89
2022/11/10 05:19:32;;;;;;;3.50;1.53;;;;;;;;;;5053328;28;20532;-89
2022/11/10 05:22:01;;;;;;;5.53;2.10;;;;;;;;;;5053107;28;20462;-88
2022/11/10 05:24:28;;;;;;;3.60;2.10;;;;;;;;;;5053198;28;20459;-87
2022/11/10 05:26:55;;;;;;;7.73;2.90;;;;;;;;;;5045287;28;20506;-89
2022/11/10 05:29:25;;;;;;;10.33;4.37;;;;;;;;;;5032941;28;20451;-91
2022/11/10 05:31:52;;;;;;;5.00;3.87;;;;;;;;;;5033620;28;20533;-92
2022/11/10 05:34:22;;;;;;;4.80;3.37;;;;;;;;;;5033143;28;20487;-90
2022/11/10 05:36:49;;;;;;;5.20;3.20;;;;;;;;;;5033700;28;20475;-90
2022/11/10 05:39:16;;;;;;;7.30;3.40;;;;;;;;;;5036826;28;21129;-88
2022/11/10 05:41:43;;;;;;;5.33;2.90;;;;;;;;;;5036891;28;20444;-92
2022/11/10 05:44:11;;;;;;;9.47;5.30;;;;;;;;;;5036015;28;20946;-89
2022/11/10 05:46:44;;;;;;;9.80;3.40;;;;;;;;;;5036970;28;20447;-90
2022/11/10 05:49:11;;;;;;;4.13;2.13;;;;;;;;;;5036886;28;20542;-88
2022/11/10 05:51:38;;;;;;;4.57;2.90;;;;;;;;;;5037196;28;20451;-92
2022/11/10 05:54:07;;;;;;;6.27;2.27;;;;;;;;;;5037002;28;20479;-93
2022/11/10 05:56:37;;;;;;;2.53;2.33;;;;;;;;;;5036842;28;20949;-93
2022/11/10 05:59:07;;;;;;;3.10;2.40;;;;;;;;;;5036074;28;20486;-92
2022/11/10 06:01:34;;;;;;;7.43;5.07;;;;;;;;;;5037232;28;20435;-89
2022/11/10 06:04:03;;;;;;;11.13;10.10;;;;;;;;;;5037243;28;20451;-89
2022/11/10 06:06:32;;;;;;;8.23;6.53;;;;;;;;;;5036969;28;20462;-89
2022/11/10 06:08:59;;;;;;;8.97;7.07;;;;;;;;;;5036863;28;20468;-91
2022/11/10 06:11:26;;;;;;;6.90;6.20;;;;;;;;;;5037175;28;20455;-90
2022/11/10 06:13:53;;;;;;;5.00;3.90;;;;;;;;;;5035791;28;20494;-88
2022/11/10 06:16:30;;;;;;;13.03;4.60;;;;;;;;;;5036568;28;20525;-93
2022/11/10 06:18:57;;;;;;;5.40;3.80;;;;;;;;;;5037392;28;20455;-89
2022/11/10 06:21:26;;;;;;;2.87;2.57;;;;;;;;;;5038253;28;20451;-86
2022/11/10 06:33:30;;;;;;;4.93;2.47;;;;;;;;;;5034783;28;20483;-90
2022/11/10 06:35:57;;;;;;;2.73;1.83;;;;;;;;;;5037064;28;20455;-93
2022/11/10 06:38:25;;;;;;;2.90;2.60;;;;;;;;;;5037287;28;20479;-87
2022/11/10 06:40:52;;;;;;;4.33;2.40;;;;;;;;;;5035331;28;20479;-92
2022/11/10 06:43:19;;;;;;;5.00;2.33;;;;;;;;;;5033979;28;20455;-84
2022/11/10 06:45:47;;;;;;;3.97;3.07;;;;;;;;;;5034774;28;20473;-86
2022/11/10 06:48:14;;;;;;;5.83;3.30;;;;;;;;;;5034962;28;20601;-86
2022/11/10 06:50:41;;;;;;;5.20;3.20;;;;;;;;;;5034588;28;20889;-85
2022/11/10 06:53:10;;;;;;;3.20;2.63;;;;;;;;;;5034504;28;20483;-84
2022/11/10 06:55:38;;;;;;;2.60;2.03;;;;;;;;;;5034625;28;21309;-85
2022/11/10 06:58:05;;;;;;;5.03;3.33;;;;;;;;;;5034688;28;21025;-92
2022/11/10 07:00:32;;;;;;;8.13;3.60;;;;;;;;;;5033889;28;21009;-90
2022/11/10 07:03:00;;;;;;;4.67;2.97;;;;;;;;;;5034654;28;20458;-87
2022/11/10 07:05:28;;;;;;;4.80;3.10;;;;;;;;;;5034971;28;20540;-88
2022/11/10 07:07:55;;;;;;;5.07;3.57;;;;;;;;;;5034808;28;20435;-91
2022/11/10 07:10:22;;;;;;;9.40;4.17;;;;;;;;;;5034574;28;20450;-83
2022/11/10 07:12:56;;;;;;;5.77;4.00;;;;;;;;;;5034495;28;20930;-87
2022/11/10 07:15:23;;;;;;;6.80;3.13;;;;;;;;;;5033272;28;20498;-85
2022/11/10 07:17:50;;;;;;;11.80;3.70;;;;;;;;;;5033957;28;20943;-84
2022/11/10 07:20:17;;;;;;;12.20;3.23;;;;;;;;;;5033911;28;20534;-87
2022/11/10 07:22:44;;;;;;;5.80;3.30;;;;;;;;;;5034021;28;20450;-85
2022/11/10 07:25:11;;;;;;;4.27;3.47;;;;;;;;;;5034019;28;20458;-87
2022/11/10 07:27:41;;;;;;;4.40;3.50;;;;;;;;;;5045166;28;20993;-89
2022/11/10 07:33:07;;;;;;;7.07;3.90;;;;;;;;;;5036228;28;20447;-90
2022/11/10 07:35:35;;;;;;;13.07;3.27;;;;;;;;;;5054787;28;20470;-86
2022/11/10 07:38:03;;;;;;;3.70;2.87;;;9.80;99.90;;;;;;5054147;28;20951;-84
2022/11/10 07:40:31;;;;;;;6.10;3.80;;;;;;;;;;5053615;28;20457;-86
2022/11/10 07:42:58;;;;;;;3.90;2.20;;;;;;;;;;5053637;28;20454;-85
2022/11/10 07:45:27;;;;;;;3.90;3.17;;;;;;;;;;5052346;28;20537;-85
2022/11/10 07:47:58;;;;;;;5.10;3.00;;;;;;;;;;5054241;28;20454;-89
2022/11/10 07:50:25;;;;;;;4.20;3.80;;;;;;;;;;5054055;28;20457;-89
2022/11/10 07:52:53;;;;;;;3.97;3.17;;;;;;;;;;5053930;28;20443;-89
2022/11/10 07:55:20;;;;;;;2.57;1.50;;;;;;;;;;5054198;28;20494;-89
2022/11/10 07:57:47;;;;;;;3.43;2.13;;;;;;;;;;5054561;28;20500;-90
2022/11/10 08:00:15;;;;;;;5.07;1.60;;;;;;;;;;5051459;28;21015;-85
2022/11/10 08:02:44;;;;;;;6.07;3.40;;;;;;;;;;5047312;28;20557;-85
2022/11/10 08:05:11;;;;;;;4.07;1.40;;;;;;;;;;5033643;28;20545;-85
2022/11/10 08:07:39;;;;;;;3.00;1.20;;;;;;;;;;5034705;28;20538;-86
2022/11/10 08:10:08;;;;;;;2.53;1.17;;;;;;;;;;5034013;28;20452;-88
2022/11/10 08:12:35;;;;;;;6.40;2.10;;;;;;;;;;5033152;28;20452;-86
2022/11/10 08:15:05;;;;;;;3.00;1.53;;;;;;;;;;5031905;28;20586;-85
2022/11/10 08:17:32;;;;;;;2.40;1.63;;;;;;;;;;5033166;28;20494;-86
2022/11/10 08:20:01;;;;;;;3.00;1.63;;;;;;;;;;5033330;28;20447;-87
2022/11/10 08:22:28;;;;;;;5.07;1.50;;;;;;;;;;5033337;28;20458;-87
2022/11/10 08:25:21;;;;;;;3.40;1.27;;;;;;;;;;5036405;28;20491;-90
2022/11/10 08:27:51;;;;;;;2.57;1.10;;;;;;;;;;5027512;28;20479;-88
2022/11/10 08:30:19;;;;;;;3.17;1.10;;;;;;;;;;5032921;28;20546;-88
2022/11/10 08:32:46;;;;;;;3.63;0.90;;;;;;;;;;5033157;28;20451;-87
2022/11/10 08:35:17;;;;;;;2.17;0.90;;;;;;;;;;5032872;28;20455;-90
2022/11/10 08:37:45;;;;;;;3.30;1.30;;;;;;;;;;5033321;28;20539;-86
2022/11/10 08:40:12;;;;;;;1.30;0.97;;;;;;;;;;5029110;28;20447;-88
2022/11/10 08:42:40;;;;;;;2.47;1.00;;;;;;;;;;5033616;28;20985;-83
2022/11/10 08:45:07;;;;;;;2.83;1.30;;;;;;;;;;5031505;28;20502;-86
2022/11/10 08:47:34;;;;;;;4.90;1.30;;;;;;;;;;5033010;28;20798;-86
2022/11/10 08:50:01;;;;;;;2.17;1.20;;;;;;;;;;5032671;28;20931;-84
2022/11/10 08:52:30;;;;;;;3.20;1.20;;;;;;;;;;5032895;28;20869;-85
2022/11/10 08:54:57;;;;;;;2.93;1.20;;;;;;;;;;5032620;28;20787;-84
2022/11/10 08:57:24;;;;;;;1.57;1.00;;;;;;;;;;5032641;28;20486;-83
2022/11/10 08:59:51;;;;;;;1.37;0.80;;;;;;;;;;5031495;28;20448;-85
2022/11/10 09:02:18;;;;;;;5.03;1.13;;;;;;;;;;5032767;28;20527;-84
2022/11/10 09:04:46;;;;;;;4.23;1.20;;;;;;;;;;5032779;28;20521;-85
2022/11/10 09:07:13;;;;;;;1.93;0.93;;;;;;;;;;5032700;28;20531;-84
2022/11/10 09:09:41;;;;;;;3.83;1.20;;;;;;;;;;5032323;28;20462;-85
2022/11/10 09:12:08;;;;;;;2.13;0.93;;;;;;;;;;5033629;28;20451;-85
2022/11/10 09:14:36;;;;;;;3.83;1.27;;;;;;;;;;5035362;28;20541;-85
2022/11/10 09:17:03;;;;;;;3.40;1.03;;;;;;;;;;5038023;28;20442;-84
2022/11/10 09:19:31;;;;;;;10.13;2.00;;;;;;;;;;5059776;28;20471;-85
2022/11/10 09:21:58;;;;;;;3.53;1.10;;;;;;;;;;5048010;28;20492;-86
2022/11/10 09:24:25;;;;;;;5.23;2.13;;;;;;;;;;5056196;28;20529;-88
2022/11/10 09:26:54;;;;;;;2.00;1.13;;;;;;;;;;5055669;28;20499;-85
2022/11/10 09:29:21;;;;;;;4.83;1.47;;;;;;;;;;5055189;28;20538;-87
2022/11/10 09:31:48;;;;;;;5.23;1.60;;;;;;;;;;5055806;28;20478;-84
2022/11/10 09:34:21;;;;;;;7.80;1.63;;;;;;;;;;5056126;28;20820;-89
2022/11/10 09:36:48;;;;;;;1.63;1.37;;;;;;;;;;5056113;28;20970;-87
2022/11/10 09:39:15;;;;;;;2.73;1.20;;;;;;;;;;5056966;28;20446;-88
2022/11/10 09:41:44;;;;;;;1.20;1.10;;;;;;;;;;5076402;28;20541;-88
2022/11/10 09:44:15;;;;;;;4.33;1.63;;;;;;;;;;5075103;28;20485;-86
2022/11/10 09:46:44;;;;;;;3.00;1.27;;;;;;;;;;5076225;28;20552;-88
2022/11/10 09:49:21;;;;;;;4.57;2.00;;;;;;;;;;5076110;28;20544;-90
2022/11/10 09:51:48;;;;;;;2.03;1.30;;;;;;;;;;5075843;28;20458;-86
2022/11/10 09:54:23;;;;;;;1.53;0.90;;;;;;;;;;5075934;28;20459;-87
2022/11/10 09:56:52;;;;;;;24.67;22.00;;;;;;;;;;5102948;23;20573;-85
2022/11/10 10:02:04;;;;;;;5.53;1.17;;;;;;;;;;5131557;27;20549;-87
2022/11/10 10:04:40;;;;;;;3.67;1.60;;;;;;;;;;5131912;27;21073;-84
2022/11/10 10:07:09;;;;;;;2.80;0.90;;;;;;;;;;5131334;27;21048;-90
2022/11/10 10:09:42;;;;;;;3.60;1.40;;;;;;;;;;5132118;27;20812;-87
2022/11/10 10:12:23;;;;;;;2.33;0.77;;;15.00;99.90;;;;;;5132459;27;20534;-81
2022/11/10 10:15:10;;;;;;;3.37;1.37;;;15.60;99.90;;;;;;5130276;27;20444;-85
2022/11/10 10:17:41;;;;;;;2.80;0.97;;;;;;;;;;5133066;27;20950;-85
2022/11/10 10:20:13;;;;;;;5.40;1.03;;;;;;;;;;5131575;27;20478;-86
2022/11/10 10:23:03;;;;;;;3.43;1.13;;;;;;;;;;5131134;27;20453;-85
2022/11/10 10:25:31;;;;;;;6.23;1.43;;;;;;;;;;5126892;27;20465;-84
2022/11/10 10:28:02;;;;;;;3.80;1.00;;;;;;;;;;5130994;27;20861;-86
2022/11/10 10:30:29;;;;;;;3.73;1.53;;;;;;;;;;5129985;27;20588;-86
2022/11/10 10:33:03;;;;;;;0.97;0.73;;;;;;;;;;5130836;27;20443;-83
2022/11/10 10:35:30;;;;;;;3.90;0.80;;;;;;;;;;5130849;27;20473;-83
2022/11/10 10:37:58;;;;;;;2.17;0.90;;;;;;;;;;5130454;27;20441;-83
2022/11/10 10:40:25;;;;;;;1.33;0.60;;;;;;;;;;5130548;27;20483;-81
2022/11/10 10:42:53;;;;;;;1.70;0.70;;;;;;;;;;5130760;27;20455;-83
2022/11/10 10:45:22;;;;;;;2.97;1.17;;;15.50;96.40;;;;;;5129709;27;20484;-83
2022/11/10 10:47:51;;;;;;;1.60;0.60;;;15.30;95.40;;;;;;5130981;27;20462;-82
2022/11/10 10:50:27;;;;;;;1.87;1.10;;;;;;;;;;5130964;27;20819;-85
2022/11/10 10:53:15;;;;;;;1.70;0.73;;;16.70;95.40;;;;;;5130664;27;20442;-83
2022/11/10 10:55:47;;;;;;;2.40;0.80;;;;;;;;;;5131277;27;20524;-83
2022/11/10 10:58:26;;;;;;;1.17;0.67;;;16.00;95.20;;;;;;5130745;27;20538;-84
2022/11/10 11:00:55;;;;;;;0.90;0.70;;;;;;;;;;5131094;27;20484;-87
2022/11/10 11:03:26;;;;;;;3.13;0.70;;;;;;;;;;5130419;27;20890;-86
2022/11/10 11:06:06;;;;;;;2.10;0.80;;;16.40;91.40;;;;;;5130356;27;20439;-82
2022/11/10 11:08:34;;;;;;;2.30;0.93;;;;;;;;;;5129956;27;20462;-85
2022/11/10 11:11:10;;;;;;;1.67;0.60;;;16.60;92.70;;;;;;5130135;27;20440;-84
2022/11/10 11:13:38;;;;;;;2.10;0.77;;;17.00;91.10;;;;;;5114859;28;20791;-84
2022/11/10 11:16:08;;;;;;;2.30;0.60;;;17.00;91.00;;;;;;5116419;28;20447;-83
2022/11/10 11:18:38;;;;;;;1.93;0.80;;;17.10;90.40;;;;;;5116389;28;20444;-83
2022/11/10 11:21:14;;;;;;;1.80;0.60;;;17.30;88.90;;;;;;5116078;28;20491;-86
2022/11/10 11:24:16;;;;;;;2.10;0.83;;;16.40;90.40;;;;;;5110384;28;20452;-86
2022/11/10 11:26:47;;;;;;;1.57;0.70;;;;;;;;;;5092806;28;20528;-82
2022/11/10 11:29:26;;;;;;;1.63;0.60;;;16.10;93.20;;;;;;5093903;28;20445;-84
2022/11/10 11:32:04;;;;;;;2.70;0.60;;;17.00;90.80;;;;;;5095374;28;20452;-82
2022/11/10 11:34:39;;;;;;;4.60;1.07;;;17.20;91.10;;;;;;5095128;28;20455;-83
2022/11/10 11:37:16;;;;;;;1.07;0.53;;;17.20;88.60;;;;;;5101017;28;20451;-83
2022/11/10 11:39:55;;;;;;;4.73;1.27;;;17.50;90.80;;;;;;5115322;27;20435;-82
2022/11/10 11:42:35;;;;;;;4.30;1.10;;;17.80;86.90;;;;;;5115651;28;20492;-85
2022/11/10 11:45:16;;;;;;;2.00;0.70;;;18.20;87.20;;;;;;5114432;28;20443;-85
2022/11/10 11:47:58;;;;;;;1.87;0.60;;;17.40;90.00;;;;;;5115567;28;20946;-84
2022/11/10 11:50:30;;;;;;;2.83;0.50;;;16.60;87.70;;;;;;5115345;27;20451;-83
2022/11/10 11:53:05;;;;;;;0.63;0.60;;;;;;;;;;5129756;28;20464;-82
2022/11/10 11:55:53;;;;;;;1.70;0.77;;;16.10;90.50;;;;;;5133567;28;20542;-82
2022/11/10 11:58:27;;;;;;;1.50;0.50;;;16.70;90.00;;;;;;5115359;28;20448;-83
2022/11/10 12:01:06;;;;;;;2.57;1.03;;;17.00;85.70;;;;;;5114888;28;20494;-83
2022/11/10 12:03:42;;;;;;;1.60;0.90;;;;;;;;;;5115129;28;20458;-83
2022/11/10 12:06:16;;;;;;;4.10;1.30;;;;;;;;;;5115303;27;20883;-84
2022/11/10 12:08:54;;;;;;;2.93;0.80;;;17.10;89.40;;;;;;5115512;28;20444;-84
2022/11/10 12:11:25;;;;;;;1.07;0.40;;;;;;;;;;5115255;28;20447;-86
2022/11/10 12:14:01;;;;;;;1.30;0.57;;;17.00;88.20;;;;;;5114204;28;20452;-82
2022/11/10 12:16:30;;;;;;;2.20;0.80;;;16.90;91.10;;;;;;5115113;28;20439;-82
2022/11/10 12:19:08;;;;;;;2.27;0.57;;;16.50;90.50;;;;;;5114984;28;20455;-88
2022/11/10 12:21:44;;;;;;;1.63;0.40;;;17.10;90.00;;;;;;5114906;28;20491;-82
2022/11/10 12:24:44;;;;;;;1.37;0.60;;;17.00;89.70;;;;;;5114079;28;20452;-87
2022/11/10 12:27:18;;;;;;;2.53;0.70;;;16.60;91.60;;;;;;5107579;28;20455;-86
2022/11/10 12:29:48;;;;;;;4.83;0.80;;;;;;;;;;5114613;28;20457;-91
2022/11/10 12:32:18;;;;;;;2.10;0.83;;;;;;;;;;5116034;28;20927;-86
2022/11/10 12:34:48;;;;;;;4.17;1.00;;;;;;;;;;5118997;28;20504;-83
2022/11/10 12:37:18;;;;;;;1.93;0.60;;;;;;;;;;5119282;28;20955;-90
2022/11/10 12:39:48;;;;;;;2.20;0.83;;;;;;;;;;5114788;28;20476;-90
2022/11/10 12:42:25;;;;;;;1.33;0.67;;;17.10;88.80;;;;;;5114733;28;20497;-85
2022/11/10 12:45:01;;;;;;;1.57;0.80;;;;;;;;;;5113899;28;20528;-89
2022/11/10 12:47:30;;;;;;;1.47;0.63;;;;;;;;;;5116991;28;20458;-90
2022/11/10 12:50:02;;;;;;;2.00;1.10;;;;;;;;;;5116359;28;20539;-83
2022/11/10 12:52:34;;;;;;;4.40;0.83;;;;;;;;;;5115062;28;20463;-84
2022/11/10 12:55:01;;;;;;;1.70;1.03;;;;;;;;;;5114901;28;20444;-85
2022/11/10 12:57:31;;;;;;;2.73;0.63;;;17.60;86.80;;;;;;5114459;28;20497;-85
2022/11/10 13:00:02;;;;;;;2.67;0.73;;;17.20;88.20;;;;;;5112909;28;20537;-82
2022/11/10 13:02:33;;;;;;;2.20;0.80;;;16.60;90.40;;;;;;5114171;28;20498;-84
2022/11/10 13:05:17;;;;;;;1.67;0.50;;;16.60;89.60;;;;;;5113876;28;20444;-83
2022/11/10 13:07:46;;;;;;;1.13;0.70;;;16.70;88.30;;;;;;5114043;28;20476;-85
2022/11/10 13:10:23;;;;;;;1.47;0.83;;;16.50;89.40;;;;;;5113955;28;20448;-85
2022/11/10 13:13:06;;;;;;;4.07;1.13;;;17.10;90.10;;;;;;5113964;28;20454;-83
2022/11/10 13:15:47;;;;;;;2.60;0.87;;;;;;;;;;5112771;28;20472;-83
2022/11/10 13:18:41;;;;;;;1.53;0.70;;;17.30;89.00;;;;;;5113937;27;20459;-80
2022/11/10 13:21:08;;;;;;;1.00;0.70;;;;;;;;;;5114007;28;20491;-81
2022/11/10 13:24:19;;;;;;;0.90;0.70;;;16.30;90.00;;;;;;5114319;28;20440;-83
2022/11/10 13:26:49;;;;;;;2.30;0.60;;;16.50;87.30;;;;;;5067347;27;20831;-82
2022/11/10 13:29:33;;;;;;;3.30;0.80;;;16.60;89.60;;;;;;5113174;28;20475;-84
2022/11/10 13:32:37;;;;;;;1.80;0.43;;;16.10;92.60;;;;;;5113256;28;20509;-81
2022/11/10 13:35:42;;;;;;;3.00;0.70;;;16.50;86.70;;;;;;5113280;28;20448;-83
2022/11/10 13:38:33;;;;;;;0.80;0.53;;;16.90;90.60;;;;;;5113922;28;20444;-81
2022/11/10 13:41:12;;;;;;;0.97;0.63;;;;;;;;;;5113525;28;20488;-80
2022/11/10 13:43:49;;;;;;;1.90;0.70;;;16.70;89.40;;;;;;5112418;28;20458;-84
2022/11/10 13:46:17;;;;;;;1.13;0.73;;;;;;;;;;5113527;28;20483;-82
2022/11/10 13:49:25;;;;;;;2.87;1.20;;;16.00;91.10;;;;;;5113490;28;20448;-81
2022/11/10 13:52:05;;;;;;;0.70;0.70;;;16.40;90.40;;;;;;5110029;28;20440;-84
2022/11/10 13:55:02;;;;;;;3.30;0.80;;;16.90;85.20;;;;;;5113226;28;20447;-87
2022/11/10 13:57:34;;;;;;;1.63;0.63;;;17.90;92.00;;;;;;5110732;28;20949;-84
2022/11/10 14:00:03;;;;;;;1.73;0.73;;;;;;;;;;5111778;28;20526;-84
2022/11/10 14:03:01;;;;;;;1.00;0.70;;;17.60;85.50;;;;;;5112921;28;20507;-84
2022/11/10 14:06:16;;;;;;;1.60;0.70;;;17.50;85.30;;;;;;5113160;28;20451;-81
2022/11/10 14:08:50;;;;;;;1.20;0.50;;;18.00;89.70;;;;;;5113428;28;20530;-81
2022/11/10 14:11:25;;;;;;;1.63;0.73;;;17.50;90.40;;;;;;5113336;28;20458;-82
2022/11/10 14:13:57;;;;;;;2.97;1.03;;;17.40;91.10;;;;;;5112014;28;20443;-83
2022/11/10 14:16:26;;;;;;;2.70;1.00;;;17.00;92.40;;;;;;5113207;28;20660;-81
2022/11/10 14:18:59;;;;;;;5.63;1.00;;;17.00;93.40;;;;;;5113069;28;20950;-83
2022/11/10 14:21:33;;;;;;;1.33;0.97;;;17.20;93.40;;;;;;5113044;28;20487;-84
2022/11/10 14:24:11;;;;;;;2.73;0.97;;;17.10;92.20;;;;;;5113199;28;20447;-81
2022/11/10 14:26:42;;;;;;;1.70;0.90;;;16.80;91.80;;;;;;5112988;28;20447;-81
2022/11/10 14:29:22;;;;;;;1.33;0.80;;;;;;;;;;5111903;28;20452;-83
2022/11/10 14:31:50;;;;;;;3.63;1.00;;;;;;;;;;5113073;28;20461;-82
2022/11/10 14:34:18;;;;;;;5.97;1.30;;;17.00;92.40;;;;;;5113049;28;20816;-81
2022/11/10 14:36:53;;;;;;;0.70;0.60;;;17.10;90.30;;;;;;5112879;28;20452;-83
2022/11/10 14:39:29;;;;;;;3.10;0.90;;;16.80;92.10;;;;;;5112687;28;20443;-79
2022/11/10 14:41:57;;;;;;;7.40;4.73;;;16.60;93.00;;;;;;5114231;27;20505;-83
2022/11/10 14:44:26;;;;;;;3.43;2.30;;;16.00;95.00;;;;;;5109457;28;20459;-80
2022/11/10 14:46:53;;;;;;;10.90;7.70;;;;;;;;;;5113985;28;20533;-81
2022/11/10 14:49:24;;;;;;;3.63;2.53;;;;;;;;;;5116965;28;20448;-83
2022/11/10 14:51:56;;;;;;;11.47;4.97;;;16.20;93.40;;;;;;5116566;28;20451;-80
2022/11/10 14:54:26;;;;;;;25.93;16.93;;;16.10;93.20;;;;;;5116868;28;20447;-83
2022/11/10 14:56:53;;;;;;;25.87;15.70;;;16.10;94.00;;;;;;5116741;28;20444;-81
2022/11/10 14:59:21;;;;;;;10.20;7.60;;;;;;;;;;5115377;28;20488;-83
2022/11/10 15:01:53;;;;;;;4.33;3.10;;;15.10;95.40;;;;;;5116278;28;20508;-81
2022/11/10 15:04:25;;;;;;;3.50;2.27;;;14.80;96.50;;;;;;5116504;28;21075;-84
2022/11/10 15:06:53;;;;;;;2.63;2.13;;;;;;;;;;5116447;28;20442;-83